Zabol, Iran
Current Conditions -  °F | °C
As of 8:00 AM on Saturday 29 Nov 2014 (Local Time) from OIZB Reporting Station
Clear Clear  
Wind Chill: 55°   Ceiling: Unl
Heat Index: 55°   Visibility: 6mi
Dew Point: 36°   Wind: 12mph
Humidity: 47%   Direction: 340°NNW
Pressure: 30.06"   Gusts: NA
Location:  31.04°N, 61.5°E
Report Text: OIZB 290500Z 34010KT CAVOK 13/02 Q1018
Loading
Personal Weather Stations






























Interactive Weather Map New forecast layout! Learn more

10-Day Weather Forecast

Advertisements
Track Severe Weather on mobile